Time;durP1;ratioP1;P1;durP2;ratioP2;P2;SDS_P1;SDS_P2;PMS_P1;PMS_P2;Temp;Humidity;BMP_temperature;BMP_pressure;BME280_temperature;BME280_humidity;BME280_pressure;Samples;Min_cycle;Max_cycle;Signal;HPM_P1;HPM_P2
2023/01/17 00:00:13;;;;;;;7.23;4.27;;;3.80;99.90;;;;;;5032845;28;20029;-55
2023/01/17 00:02:39;;;;;;;6.33;4.30;;;3.80;99.90;;;;;;5032980;28;20057;-54
2023/01/17 00:10:37;;;;;;;5.53;3.00;;;3.70;99.90;;;;;;5032923;28;20044;-54
2023/01/17 00:13:02;;;;;;;3.92;2.70;;;3.60;99.90;;;;;;5032758;28;20482;-55
2023/01/17 00:15:30;;;;;;;4.73;2.70;;;3.60;99.90;;;;;;5032677;28;20034;-52
2023/01/17 00:17:56;;;;;;;4.00;2.57;;;3.60;99.90;;;;;;5032581;28;20035;-55
2023/01/17 00:26:02;;;;;;;5.80;3.50;;;3.60;99.90;;;;;;5032662;28;20029;-55
2023/01/17 01:35:43;;;;;;;8.33;2.23;;;3.20;99.90;;;;;;5031242;28;20033;-55
2023/01/17 01:38:08;;;;;;;7.87;2.73;;;3.10;99.90;;;;;;5031114;28;20040;-53
2023/01/17 01:40:39;;;;;;;9.83;3.03;;;3.10;99.90;;;;;;5031105;28;20030;-53
2023/01/17 01:43:09;;;;;;;5.87;2.87;;;3.10;99.90;;;;;;5031209;28;20459;-56
2023/01/17 01:45:35;;;;;;;6.90;3.30;;;3.20;99.90;;;;;;5031203;28;20084;-53
2023/01/17 01:48:10;;;;;;;7.43;3.60;;;3.20;99.90;;;;;;5030145;28;20021;-53
2023/01/17 01:50:36;;;;;;;7.77;3.37;;;3.20;99.90;;;;;;5030949;28;20034;-52
2023/01/17 01:53:04;;;;;;;8.03;4.63;;;3.20;99.90;;;;;;5031027;28;20038;-52
2023/01/17 01:55:33;;;;;;;8.07;3.50;;;3.20;99.90;;;;;;5030690;28;20104;-54
2023/01/17 01:58:07;;;;;;;5.88;3.00;;;3.20;99.90;;;;;;5030842;28;20389;-52
2023/01/17 02:00:35;;;;;;;4.13;2.93;;;3.30;99.90;;;;;;5030708;28;20036;-55
2023/01/17 02:03:06;;;;;;;4.40;2.43;;;3.20;99.90;;;;;;5030782;28;20033;-53
2023/01/17 02:05:33;;;;;;;5.47;3.00;;;3.20;99.90;;;;;;5029345;28;20086;-51
2023/01/17 02:08:03;;;;;;;4.00;2.30;;;3.20;99.90;;;;;;5029264;28;20406;-53
2023/01/17 02:10:37;;;;;;;4.80;2.40;;;3.20;99.90;;;;;;5030587;28;20033;-54
2023/01/17 02:13:04;;;;;;;8.73;2.33;;;3.20;99.90;;;;;;5030868;28;20025;-53
2023/01/17 02:15:53;;;;;;;3.67;2.07;;;3.20;99.90;;;;;;5030535;28;20036;-53
2023/01/17 02:18:39;;;;;;;2.38;1.13;;;3.10;99.90;;;;;;5030408;28;20113;-54
2023/01/17 02:21:08;;;;;;;2.53;1.37;;;3.10;99.90;;;;;;5030380;28;20267;-55
2023/01/17 02:23:48;;;;;;;3.53;1.42;;;3.00;99.90;;;;;;5030506;28;20393;-51
2023/01/17 02:26:40;;;;;;;3.97;1.63;;;2.90;99.90;;;;;;5030659;28;20029;-54
2023/01/17 02:29:24;;;;;;;3.50;1.90;;;2.80;99.90;;;;;;5022281;28;20124;-53
2023/01/17 02:32:26;;;;;;;7.87;3.37;;;2.60;99.90;;;;;;5030474;28;20485;-52
2023/01/17 02:35:08;;;;;;;6.67;3.47;;;2.60;99.90;;;;;;5030280;28;20029;-53
2023/01/17 02:37:48;;;;;;;7.27;2.50;;;2.50;99.90;;;;;;5030375;28;20025;-51
2023/01/17 02:40:22;;;;;;;4.28;2.13;;;2.40;99.90;;;;;;5030386;28;20064;-53
2023/01/17 02:42:55;;;;;;;4.17;2.20;;;2.40;99.90;;;;;;5030478;28;20025;-52
2023/01/17 02:45:21;;;;;;;7.80;2.43;;;2.30;99.90;;;;;;5030265;28;20060;-50
2023/01/17 02:47:46;;;;;;;10.70;2.90;;;2.30;99.90;;;;;;5030128;28;20367;-55
2023/01/17 02:50:19;;;;;;;2.77;1.47;;;2.10;99.90;;;;;;5030237;28;20033;-52
2023/01/17 02:52:59;;;;;;;2.87;1.30;;;2.10;99.90;;;;;;5030761;28;20029;-51
2023/01/17 02:55:43;;;;;;;3.03;1.17;;;2.10;99.90;;;;;;5030169;28;20075;-50
2023/01/17 02:58:48;;;;;;;3.40;1.40;;;2.00;99.90;;;;;;5028826;28;20549;-53
2023/01/17 03:01:26;;;;;;;0.83;0.60;;;2.10;99.90;;;;;;5034061;28;20033;-50
2023/01/17 03:03:59;;;;;;;3.20;1.10;;;2.10;99.90;;;;;;5034059;28;20025;-52
2023/01/17 03:06:34;;;;;;;1.23;0.77;;;2.20;99.90;;;;;;5033949;28;20132;-53
2023/01/17 03:09:00;;;;;;;1.23;0.70;;;2.20;99.90;;;;;;5034181;28;20037;-55
2023/01/17 03:11:26;;;;;;;2.57;0.90;;;2.20;99.90;;;;;;5033938;28;20475;-56
2023/01/17 03:13:56;;;;;;;2.87;1.10;;;2.30;99.90;;;;;;5034111;28;20029;-51
2023/01/17 03:16:24;;;;;;;3.53;1.20;;;2.30;99.90;;;;;;5033737;28;20029;-53
2023/01/17 03:18:49;;;;;;;2.00;0.90;;;2.30;99.90;;;;;;5032388;28;20047;-54
2023/01/17 03:21:15;;;;;;;2.10;0.80;;;2.30;99.90;;;;;;5046474;23;20049;-56
2023/01/17 03:23:41;;;;;;;2.67;0.90;;;2.20;99.90;;;;;;5033377;28;20025;-55
2023/01/17 03:26:07;;;;;;;1.50;0.90;;;2.20;99.90;;;;;;5032463;28;20026;-56
2023/01/17 03:28:33;;;;;;;2.30;1.00;;;2.30;99.90;;;;;;5033528;28;20037;-57
2023/01/17 03:30:58;;;;;;;2.60;1.00;;;2.30;99.90;;;;;;5033429;28;20091;-56
2023/01/17 03:33:24;;;;;;;2.27;1.13;;;2.30;99.90;;;;;;5033258;28;20033;-52
2023/01/17 03:35:50;;;;;;;2.73;1.20;;;2.30;99.90;;;;;;5033531;28;20037;-53
2023/01/17 03:38:16;;;;;;;2.40;0.93;;;2.30;99.90;;;;;;5033323;28;20048;-54
2023/01/17 03:40:42;;;;;;;2.30;1.13;;;2.40;99.90;;;;;;5033267;28;20038;-53
2023/01/17 03:43:07;;;;;;;3.43;1.00;;;2.40;99.90;;;;;;5033398;28;20033;-56
2023/01/17 03:45:33;;;;;;;2.37;1.23;;;2.40;99.90;;;;;;5033138;28;20032;-54
2023/01/17 03:47:59;;;;;;;2.17;1.50;;;2.40;99.90;;;;;;5033069;28;20108;-57
2023/01/17 03:50:25;;;;;;;2.37;1.90;;;2.40;99.90;;;;;;5033360;28;20043;-54
2023/01/17 03:52:51;;;;;;;3.40;1.80;;;2.40;99.90;;;;;;5033204;28;20494;-55
2023/01/17 03:55:17;;;;;;;3.57;1.93;;;2.40;99.90;;;;;;5033086;28;20057;-52
2023/01/17 03:57:43;;;;;;;3.10;2.20;;;2.40;99.90;;;;;;5032973;28;20068;-54
2023/01/17 04:00:09;;;;;;;3.80;2.10;;;2.40;99.90;;;;;;5032973;28;20086;-55
2023/01/17 04:02:35;;;;;;;3.93;2.27;;;2.40;99.90;;;;;;5032934;28;20022;-54
2023/01/17 04:05:01;;;;;;;3.50;2.07;;;2.40;99.90;;;;;;5032826;28;20505;-56
2023/01/17 04:07:26;;;;;;;4.47;2.33;;;2.40;99.90;;;;;;5032755;28;20438;-54
2023/01/17 04:09:53;;;;;;;3.90;2.30;;;2.40;99.90;;;;;;5032938;28;20540;-54
2023/01/17 04:12:19;;;;;;;5.90;2.77;;;2.40;99.90;;;;;;5032055;28;20034;-55
2023/01/17 04:14:44;;;;;;;8.10;3.20;;;2.40;99.90;;;;;;5032996;28;20171;-54
2023/01/17 04:17:17;;;;;;;7.53;3.40;;;2.40;99.90;;;;;;5031201;28;20541;-54
2023/01/17 04:19:43;;;;;;;6.03;3.23;;;2.40;99.90;;;;;;5032724;28;20040;-55
2023/01/17 04:22:09;;;;;;;8.83;3.60;;;2.40;99.90;;;;;;5032496;28;20041;-51
2023/01/17 04:24:35;;;;;;;7.87;3.53;;;2.50;99.90;;;;;;5032481;28;20018;-57
2023/01/17 04:27:01;;;;;;;5.60;3.27;;;2.50;99.90;;;;;;5032495;28;20401;-53
2023/01/17 04:29:26;;;;;;;6.47;3.53;;;2.40;99.90;;;;;;5032388;28;20057;-55
2023/01/17 04:31:52;;;;;;;6.90;3.70;;;2.40;99.90;;;;;;5032393;28;20037;-57
2023/01/17 04:34:18;;;;;;;7.37;3.40;;;2.40;99.90;;;;;;5032347;28;20040;-56
2023/01/17 04:36:44;;;;;;;6.97;3.93;;;2.30;99.90;;;;;;5032228;28;20437;-57
2023/01/17 04:39:10;;;;;;;5.53;2.90;;;2.40;99.90;;;;;;5032529;28;20037;-55
2023/01/17 04:41:35;;;;;;;6.40;3.50;;;2.30;99.90;;;;;;5032192;28;20474;-57
2023/01/17 04:44:01;;;;;;;8.27;3.13;;;2.30;99.90;;;;;;5031958;28;20040;-56
2023/01/17 04:46:27;;;;;;;6.80;3.60;;;2.30;99.90;;;;;;5031971;28;20437;-57
2023/01/17 04:48:53;;;;;;;8.23;3.80;;;2.20;99.90;;;;;;5032374;28;20041;-55
2023/01/17 04:51:18;;;;;;;8.93;3.90;;;2.20;99.90;;;;;;5032346;28;20057;-54
2023/01/17 04:53:44;;;;;;;9.00;4.03;;;2.10;99.90;;;;;;5032225;28;20421;-57
2023/01/17 04:56:10;;;;;;;9.73;3.70;;;2.10;99.90;;;;;;5032427;28;20033;-55
2023/01/17 04:58:35;;;;;;;6.07;3.40;;;2.10;99.90;;;;;;5031700;28;20022;-52
2023/01/17 05:01:03;;;;;;;8.13;3.53;;;2.10;99.90;;;;;;5031708;28;20041;-57
2023/01/17 05:03:29;;;;;;;5.57;3.40;;;2.10;99.90;;;;;;5031705;28;20497;-54
2023/01/17 05:05:55;;;;;;;5.50;2.87;;;2.10;99.90;;;;;;5031964;28;20460;-55
2023/01/17 05:08:21;;;;;;;8.23;3.27;;;2.10;99.90;;;;;;5031854;28;20025;-55
2023/01/17 05:10:47;;;;;;;7.77;3.00;;;2.00;99.90;;;;;;5031682;28;20393;-54
2023/01/17 05:13:13;;;;;;;5.83;2.93;;;1.90;99.90;;;;;;5031633;28;20033;-54
2023/01/17 05:15:39;;;;;;;4.53;2.83;;;1.90;99.90;;;;;;5031465;28;20112;-56
2023/01/17 05:18:07;;;;;;;9.67;3.77;;;1.80;99.90;;;;;;5031817;28;20590;-55
2023/01/17 05:20:34;;;;;;;6.10;3.00;;;1.80;99.90;;;;;;5031384;28;20448;-55
2023/01/17 05:23:00;;;;;;;8.73;3.70;;;1.80;99.90;;;;;;5031760;28;20033;-55
2023/01/17 05:25:30;;;;;;;8.70;3.77;;;1.80;99.90;;;;;;5031452;28;20033;-53
2023/01/17 05:27:58;;;;;;;8.97;3.90;;;1.70;99.90;;;;;;5031161;28;20064;-57
2023/01/17 05:30:25;;;;;;;10.02;4.55;;;1.80;99.90;;;;;;5031402;28;20471;-54
2023/01/17 05:32:52;;;;;;;9.87;4.43;;;1.70;99.90;;;;;;5031721;28;20029;-54
2023/01/17 05:35:21;;;;;;;10.57;4.57;;;1.70;99.90;;;;;;5031174;28;20034;-56
2023/01/17 05:37:48;;;;;;;7.27;4.37;;;1.70;99.90;;;;;;5031096;28;20034;-56
2023/01/17 05:40:25;;;;;;;13.60;4.87;;;1.70;99.90;;;;;;5031625;28;20033;-55
2023/01/17 05:42:54;;;;;;;9.77;4.77;;;1.80;99.90;;;;;;5031158;28;20029;-55
2023/01/17 05:45:23;;;;;;;11.80;5.43;;;1.80;99.90;;;;;;5030979;28;20034;-57
2023/01/17 05:47:51;;;;;;;12.67;5.10;;;1.80;99.90;;;;;;5030843;28;20462;-54
2023/01/17 05:50:19;;;;;;;10.40;5.40;;;1.80;99.90;;;;;;5031252;28;20018;-54
2023/01/17 05:52:53;;;;;;;13.13;5.45;;;1.80;99.90;;;;;;5029704;28;20124;-56
2023/01/17 05:55:20;;;;;;;13.03;5.53;;;1.80;99.90;;;;;;5030857;28;20587;-56
2023/01/17 05:57:45;;;;;;;11.47;5.70;;;1.80;99.90;;;;;;5030767;28;20029;-56
2023/01/17 06:00:12;;;;;;;13.40;6.13;;;1.80;99.90;;;;;;5030842;28;20117;-57
2023/01/17 06:02:38;;;;;;;12.00;6.50;;;1.80;99.90;;;;;;5031003;28;20124;-58
2023/01/17 06:05:04;;;;;;;13.50;6.30;;;1.70;99.90;;;;;;5030814;28;20549;-56
2023/01/17 06:07:30;;;;;;;13.70;6.80;;;1.70;99.90;;;;;;5030503;28;20034;-54
2023/01/17 06:09:56;;;;;;;13.60;6.83;;;1.70;99.90;;;;;;5030746;28;20025;-56
2023/01/17 06:12:21;;;;;;;17.77;7.87;;;1.80;99.90;;;;;;5030725;28;20030;-54
2023/01/17 06:14:47;;;;;;;14.70;7.77;;;1.80;99.90;;;;;;5029311;28;20451;-56
2023/01/17 06:17:13;;;;;;;12.87;7.07;;;1.80;99.90;;;;;;5030509;28;20541;-53
2023/01/17 06:19:38;;;;;;;17.73;7.80;;;1.90;99.90;;;;;;5029280;28;20033;-56
2023/01/17 06:22:04;;;;;;;20.57;7.40;;;1.90;99.90;;;;;;5030317;28;20486;-55
2023/01/17 06:24:30;;;;;;;17.70;8.23;;;1.90;99.90;;;;;;5030356;28;20041;-55
2023/01/17 06:26:56;;;;;;;16.23;8.10;;;1.90;99.90;;;;;;5030409;28;20041;-55
2023/01/17 06:29:22;;;;;;;13.10;7.40;;;1.90;99.90;;;;;;5030519;28;20171;-55
2023/01/17 06:31:48;;;;;;;14.60;8.00;;;2.00;99.90;;;;;;5030499;28;20040;-55
2023/01/17 06:34:14;;;;;;;15.30;8.07;;;2.00;99.90;;;;;;5029923;28;20029;-56
2023/01/17 06:36:40;;;;;;;16.03;8.23;;;2.00;99.90;;;;;;5030226;28;20374;-56
2023/01/17 06:39:05;;;;;;;19.10;8.30;;;2.00;99.90;;;;;;5030646;28;20377;-57
2023/01/17 06:41:31;;;;;;;16.33;8.03;;;1.90;99.90;;;;;;5030649;28;20030;-57
2023/01/17 06:43:57;;;;;;;13.63;7.97;;;2.00;99.90;;;;;;5030367;28;20052;-55
2023/01/17 06:46:22;;;;;;;15.13;7.70;;;1.90;99.90;;;;;;5030207;28;20091;-55
2023/01/17 06:48:49;;;;;;;17.67;8.70;;;1.90;99.90;;;;;;5030276;28;20445;-56
2023/01/17 06:51:15;;;;;;;15.47;7.97;;;1.80;99.90;;;;;;5030164;28;20056;-56
2023/01/17 06:53:41;;;;;;;18.80;9.07;;;1.80;99.90;;;;;;5030131;28;20043;-56
2023/01/17 06:56:07;;;;;;;17.13;8.83;;;1.80;99.90;;;;;;5030503;28;20033;-56
2023/01/17 06:58:34;;;;;;;18.10;9.70;;;1.80;99.90;;;;;;5030143;28;20229;-53
2023/01/17 07:01:10;;;;;;;22.10;10.27;;;1.70;99.90;;;;;;5030067;28;20407;-56
2023/01/17 07:03:36;;;;;;;19.50;10.23;;;1.70;99.90;;;;;;5030207;28;20382;-55
2023/01/17 07:06:03;;;;;;;19.93;11.00;;;1.70;99.90;;;;;;5030069;28;20080;-56
2023/01/17 07:08:30;;;;;;;20.50;10.73;;;1.70;99.90;;;;;;5029957;28;20033;-54
2023/01/17 07:11:01;;;;;;;22.40;10.60;;;1.80;99.90;;;;;;5029998;28;20029;-54
2023/01/17 07:13:27;;;;;;;27.43;13.13;;;1.80;99.90;;;;;;5029971;28;20398;-55
2023/01/17 07:15:53;;;;;;;29.17;13.60;;;1.80;99.90;;;;;;5030083;28;20033;-54
2023/01/17 07:18:22;;;;;;;22.13;12.13;;;1.80;99.90;;;;;;5029798;28;20029;-56
2023/01/17 07:20:48;;;;;;;28.52;12.38;;;1.90;99.90;;;;;;5029811;28;20474;-55
2023/01/17 07:23:14;;;;;;;23.73;12.87;;;1.80;99.90;;;;;;5029975;28;20030;-54
2023/01/17 07:25:40;;;;;;;27.07;13.03;;;1.80;99.90;;;;;;5029894;28;20025;-54
2023/01/17 07:28:06;;;;;;;24.70;12.67;;;1.80;99.90;;;;;;5029808;28;20036;-54
2023/01/17 07:30:32;;;;;;;26.80;13.60;;;1.90;99.90;;;;;;5029893;28;20053;-55
2023/01/17 07:32:57;;;;;;;27.77;14.33;;;1.80;99.90;;;;;;5029841;28;20057;-55
2023/01/17 07:35:25;;;;;;;25.10;14.23;;;1.70;99.90;;;;;;5029775;28;20501;-53
2023/01/17 07:37:51;;;;;;;29.37;14.90;;;1.70;99.90;;;;;;5029785;28;20120;-54
2023/01/17 07:40:19;;;;;;;31.93;14.90;;;1.70;99.90;;;;;;5029686;28;20034;-54
2023/01/17 07:42:45;;;;;;;27.27;14.50;;;1.70;99.90;;;;;;5029832;28;20029;-55
2023/01/17 07:45:12;;;;;;;31.47;14.83;;;1.80;99.90;;;;;;5028352;28;20061;-54
2023/01/17 07:47:38;;;;;;;28.43;13.73;;;1.80;99.90;;;;;;5032290;28;20029;-56
2023/01/17 07:50:05;;;;;;;25.07;14.30;;;1.70;99.90;;;;;;5033307;28;20022;-55
2023/01/17 07:52:31;;;;;;;25.23;14.33;;;1.80;99.90;;;;;;5033232;28;20549;-54
2023/01/17 07:54:57;;;;;;;31.63;14.50;;;1.70;99.90;;;;;;5033113;28;20113;-56
2023/01/17 07:57:23;;;;;;;27.70;15.00;;;1.70;99.90;;;;;;5032971;28;20022;-55
2023/01/17 07:59:50;;;;;;;27.57;14.27;;;1.80;99.90;;;;;;5033120;28;20363;-56
2023/01/17 08:02:18;;;;;;;29.93;15.13;;;1.70;99.90;;;;;;5032917;28;20048;-55
2023/01/17 08:04:43;;;;;;;32.87;14.77;;;1.70;99.90;;;;;;5033132;28;20063;-56
2023/01/17 08:07:09;;;;;;;29.83;13.93;;;1.80;99.90;;;;;;5032865;28;20423;-55
2023/01/17 08:09:35;;;;;;;28.77;15.37;;;1.70;99.90;;;;;;5032852;28;20026;-56
2023/01/17 08:12:01;;;;;;;27.90;14.67;;;1.70;99.90;;;;;;5032669;28;20061;-55
2023/01/17 08:14:27;;;;;;;27.47;14.17;;;1.70;99.90;;;;;;5032638;28;20489;-57
2023/01/17 08:16:52;;;;;;;29.73;14.47;;;1.70;99.90;;;;;;5032862;28;20026;-55
2023/01/17 08:19:18;;;;;;;29.83;14.00;;;1.70;99.90;;;;;;5032835;28;20390;-55
2023/01/17 08:21:44;;;;;;;25.17;12.77;;;1.70;99.90;;;;;;5032534;28;20156;-51
2023/01/17 08:24:13;;;;;;;27.33;14.00;;;1.70;99.90;;;;;;5032508;28;20052;-53
2023/01/17 08:26:39;;;;;;;;;;;1.70;99.90;;;;;;5033080;28;20516;-54
2023/01/17 08:29:05;;;;;;;28.17;14.13;;;1.70;99.90;;;;;;5032417;28;19948;-56
2023/01/17 08:31:33;;;;;;;30.23;13.90;;;1.60;99.90;;;;;;5032377;28;20028;-56
2023/01/17 08:33:59;;;;;;;34.93;15.43;;;1.60;99.90;;;;;;5032276;28;20029;-55
2023/01/17 08:36:26;;;;;;;34.73;15.10;;;1.60;99.90;;;;;;5032493;28;20052;-56
2023/01/17 08:38:52;;;;;;;29.47;15.17;;;1.70;99.90;;;;;;5032336;28;20040;-57
2023/01/17 08:41:23;;;;;;;32.83;15.47;;;1.70;99.90;;;;;;5032179;28;20029;-56
2023/01/17 08:43:50;;;;;;;30.70;16.07;;;1.60;99.90;;;;;;5032041;28;20512;-54
2023/01/17 08:46:17;;;;;;;33.20;16.13;;;1.70;99.90;;;;;;5032220;28;20029;-57
2023/01/17 08:48:43;;;;;;;29.80;14.80;;;1.70;99.90;;;;;;5032524;28;20104;-56
2023/01/17 08:51:10;;;;;;;28.50;14.20;;;1.70;99.90;;;;;;5032311;28;20467;-56
2023/01/17 08:53:36;;;;;;;27.23;14.03;;;1.70;99.90;;;;;;5031871;28;20112;-57
2023/01/17 08:56:03;;;;;;;26.97;12.70;;;1.70;99.90;;;;;;5032025;28;20064;-55
2023/01/17 08:58:31;;;;;;;25.93;12.77;;;1.80;99.90;;;;;;5031438;28;20037;-55
2023/01/17 09:01:01;;;;;;;29.53;12.30;;;1.80;99.90;;;;;;5031712;28;20397;-52
2023/01/17 09:03:28;;;;;;;28.57;12.37;;;1.90;99.90;;;;;;5031776;28;20030;-55
2023/01/17 09:06:19;;;;;;;23.90;12.20;;;1.90;99.90;;;;;;5031924;28;20029;-56
2023/01/17 09:08:46;;;;;;;23.77;11.77;;;1.90;99.90;;;;;;5028987;28;20034;-54
2023/01/17 09:11:15;;;;;;;24.17;11.57;;;1.90;99.90;;;;;;5031737;28;20064;-54
2023/01/17 09:13:41;;;;;;;24.90;12.63;;;1.90;99.90;;;;;;5031470;28;20025;-54
2023/01/17 09:16:07;;;;;;;24.80;12.03;;;2.00;99.90;;;;;;5031493;28;20482;-55
2023/01/17 09:18:34;;;;;;;22.40;11.47;;;2.00;99.90;;;;;;5031508;28;20124;-54
2023/01/17 09:21:10;;;;;;;27.90;11.33;;;2.20;99.90;;;;;;5045246;23;20036;-58
2023/01/17 09:23:35;;;;;;;21.83;10.63;;;2.30;99.90;;;;;;5010584;28;20044;-58
2023/01/17 09:26:01;;;;;;;26.17;11.53;;;2.50;99.90;;;;;;5011809;28;20038;-58
2023/01/17 09:28:27;;;;;;;24.97;10.53;;;2.50;99.90;;;;;;5011729;28;20125;-59
2023/01/17 09:30:53;;;;;;;21.40;9.43;;;2.60;99.90;;;;;;5011648;28;20030;-59
2023/01/17 09:33:19;;;;;;;23.10;9.97;;;2.60;99.90;;;;;;5011658;28;20060;-58
2023/01/17 09:35:46;;;;;;;19.97;10.30;;;2.70;99.90;;;;;;5011587;28;20112;-58
2023/01/17 09:38:13;;;;;;;23.33;10.40;;;2.80;99.90;;;;;;5011468;28;20083;-59
2023/01/17 09:40:44;;;;;;;22.13;9.47;;;2.80;99.90;;;;;;5011549;28;20064;-58
2023/01/17 09:43:24;;;;;;;18.10;8.93;;;3.00;99.90;;;;;;5011939;28;20116;-59
2023/01/17 09:45:51;;;;;;;19.73;9.07;;;3.20;99.90;;;;;;5011627;28;20033;-58
2023/01/17 09:48:27;;;;;;;21.40;9.30;;;3.30;99.90;;;;;;5011318;28;20129;-59
2023/01/17 09:50:59;;;;;;;19.73;9.17;;;3.50;99.90;;;;;;5011657;28;20034;-58
2023/01/17 09:53:28;;;;;;;20.40;9.43;;;3.70;99.90;;;;;;5011353;28;20026;-57
2023/01/17 09:56:09;;;;;;;14.23;7.23;;;4.20;99.90;;;;;;5011693;28;20401;-57
2023/01/17 09:58:46;;;;;;;21.20;8.47;;;4.70;99.90;;;;;;5011267;28;20034;-57
2023/01/17 10:01:13;;;;;;;18.23;8.47;;;5.00;99.90;;;;;;5011354;28;20168;-57
2023/01/17 10:03:51;;;;;;;19.27;9.23;;;5.10;99.90;;;;;;5011394;28;20057;-58
2023/01/17 10:06:29;;;;;;;16.57;9.00;;;5.30;99.90;;;;;;5011551;28;20524;-58
2023/01/17 10:09:13;;;;;;;18.67;9.27;;;5.50;99.90;;;;;;5010874;28;20041;-57
2023/01/17 10:12:01;;;;;;;17.43;8.37;;;5.60;99.90;;;;;;5011562;28;20367;-59
2023/01/17 10:14:33;;;;;;;18.07;8.60;;;5.90;99.90;;;;;;5011110;28;20037;-58
2023/01/17 10:17:01;;;;;;;19.10;8.97;;;6.20;99.90;;;;;;5011107;28;20437;-58
2023/01/17 10:19:54;;;;;;;20.63;8.90;;;6.60;99.90;;;;;;5011114;28;20048;-58
2023/01/17 10:22:29;;;;;;;21.80;11.00;;;7.10;99.90;;;;;;5010780;28;20034;-59
2023/01/17 10:25:31;;;;;;;25.57;11.93;;;7.30;99.90;;;;;;5010799;28;20501;-58
2023/01/17 10:28:36;;;;;;;26.33;12.13;;;6.80;99.90;;;;;;4979450;28;20069;-58
2023/01/17 10:31:11;;;;;;;25.40;11.10;;;6.70;99.90;;;;;;5011002;28;20375;-58
2023/01/17 10:33:46;;;;;;;21.83;9.80;;;6.50;99.90;;;;;;5010792;28;20037;-58
2023/01/17 10:36:19;;;;;;;19.83;9.40;;;6.90;99.90;;;;;;5010824;28;20037;-58
2023/01/17 10:38:48;;;;;;;15.07;8.53;;;7.90;99.90;;;;;;5010964;28;20037;-58
2023/01/17 10:41:30;;;;;;;17.38;8.43;;;8.80;99.90;;;;;;5010661;28;20044;-58
2023/01/17 10:44:23;;;;;;;13.77;7.35;;;9.10;99.90;;;;;;5010704;28;20030;-58
2023/01/17 10:46:58;;;;;;;17.40;7.85;;;9.20;99.90;;;;;;5010597;28;20037;-58
2023/01/17 10:49:26;;;;;;;13.13;6.25;;;9.70;99.90;;;;;;5010752;28;20043;-57
2023/01/17 10:52:10;;;;;;;16.58;6.30;;;9.30;99.90;;;;;;5010735;28;20029;-58
2023/01/17 10:55:18;;;;;;;13.48;6.50;;;9.80;99.90;;;;;;5010506;28;20026;-58
2023/01/17 10:57:46;;;;;;;11.43;6.40;;;9.90;99.90;;;;;;5002280;28;20038;-59
2023/01/17 11:00:47;;;;;;;12.88;6.70;;;10.40;99.90;;;;;;5010516;28;20025;-58
2023/01/17 11:03:16;;;;;;;12.55;6.40;;;11.20;99.80;;;;;;4949392;29;20040;-58
2023/01/17 11:05:42;;;;;;;16.45;7.00;;;11.60;98.40;;;;;;4999028;28;20050;-57
2023/01/17 11:08:13;;;;;;;13.68;7.05;;;11.90;98.80;;;;;;5010256;28;20033;-58
2023/01/17 11:10:39;;;;;;;11.07;6.35;;;12.70;97.20;;;;;;5010376;28;20037;-58
2023/01/17 11:13:19;;;;;;;12.52;6.30;;;13.70;94.10;;;;;;5010212;28;20030;-57
2023/01/17 11:15:49;;;;;;;13.55;6.38;;;14.60;90.50;;;;;;5010273;28;20025;-58
2023/01/17 11:18:18;;;;;;;11.98;6.07;;;14.00;91.00;;;;;;5010232;28;20498;-58
2023/01/17 11:20:45;;;;;;;12.18;6.53;;;14.00;89.40;;;;;;5012036;28;20037;-58
2023/01/17 11:23:14;;;;;;;12.00;6.50;;;13.90;86.60;;;;;;5014021;28;20455;-57
2023/01/17 11:25:47;;;;;;;13.70;6.80;;;13.20;90.10;;;;;;5013791;28;20470;-58
2023/01/17 11:28:39;;;;;;;13.15;6.28;;;12.70;90.80;;;;;;5013751;28;20030;-58
2023/01/17 11:31:15;;;;;;;14.95;6.13;;;12.50;91.00;;;;;;5011219;28;20533;-59
2023/01/17 11:33:47;;;;;;;11.75;6.18;;;12.90;90.80;;;;;;5013812;28;20030;-59
2023/01/17 11:36:30;;;;;;;11.57;5.88;;;13.20;89.50;;;;;;5013785;28;20450;-59
2023/01/17 11:38:56;;;;;;;15.73;6.38;;;13.20;86.20;;;;;;5014153;28;20040;-59
2023/01/17 11:41:23;;;;;;;13.02;6.32;;;13.60;86.30;;;;;;5013737;28;20041;-59
2023/01/17 11:43:57;;;;;;;15.60;6.68;;;13.60;86.20;;;;;;5013489;28;20057;-59
2023/01/17 11:46:23;;;;;;;13.98;6.60;;;12.90;87.40;;;;;;5013611;28;20422;-59
2023/01/17 11:48:54;;;;;;;11.77;6.35;;;12.30;89.40;;;;;;5013607;28;20038;-59
2023/01/17 11:51:24;;;;;;;11.45;6.25;;;10.60;91.00;;;;;;5013450;28;20060;-59
2023/01/17 11:53:51;;;;;;;16.63;6.93;;;10.10;93.00;;;;;;5013341;28;20445;-59
2023/01/17 11:56:19;;;;;;;11.30;6.25;;;9.40;94.90;;;;;;5013496;28;20069;-58
2023/01/17 11:58:46;;;;;;;14.75;7.00;;;8.90;95.60;;;;;;5012065;28;20029;-58
2023/01/17 12:01:36;;;;;;;14.05;7.15;;;8.70;98.10;;;;;;5013362;28;20036;-58
2023/01/17 12:04:23;;;;;;;18.15;7.03;;;8.20;98.00;;;;;;5013151;28;20064;-58
2023/01/17 12:07:21;;;;;;;15.23;6.13;;;8.00;99.20;;;;;;5013205;28;20025;-58
2023/01/17 12:09:53;;;;;;;13.13;6.30;;;7.70;98.70;;;;;;5013228;28;20532;-58
2023/01/17 12:15:18;;;;;;;12.10;6.90;;;7.40;99.90;;;;;;5013024;28;20048;-58
2023/01/17 12:18:09;;;;;;;16.27;6.77;;;7.30;99.90;;;;;;5012935;28;20038;-58
2023/01/17 12:20:50;;;;;;;17.57;6.73;;;7.30;99.90;;;;;;5012849;28;20125;-58
2023/01/17 12:23:34;;;;;;;18.80;6.80;;;7.10;99.90;;;;;;5012819;28;20122;-58
2023/01/17 12:26:19;;;;;;;20.63;7.10;;;7.00;99.90;;;;;;5012976;28;20080;-58
2023/01/17 12:29:21;;;;;;;13.47;6.27;;;7.30;99.90;;;;;;5012663;28;20038;-58
2023/01/17 12:32:38;;;;;;;18.23;6.50;;;8.10;99.90;;;;;;5012076;28;20037;-58
2023/01/17 12:35:21;;;;;;;20.83;6.00;;;8.00;99.90;;;;;;4978947;28;20073;-58
2023/01/17 12:37:55;;;;;;;15.97;6.97;;;7.80;99.90;;;;;;5012720;28;20446;-58
2023/01/17 12:40:43;;;;;;;17.93;6.80;;;7.50;99.90;;;;;;5012548;28;20422;-58
2023/01/17 12:43:18;;;;;;;15.83;7.10;;;7.50;99.90;;;;;;5012603;28;20474;-58
2023/01/17 12:45:47;;;;;;;15.23;6.77;;;8.10;99.90;;;;;;5012509;28;20091;-59
2023/01/17 12:48:18;;;;;;;13.90;6.32;;;9.00;99.90;;;;;;5012360;28;20526;-59
2023/01/17 12:50:59;;;;;;;15.32;6.35;;;9.70;99.90;;;;;;5012153;28;20080;-58
2023/01/17 12:53:47;;;;;;;16.33;6.32;;;11.00;96.70;;;;;;5012157;28;20036;-59
2023/01/17 12:56:31;;;;;;;12.63;5.88;;;11.90;94.60;;;;;;5012423;28;20037;-59
2023/01/17 12:59:19;;;;;;;14.85;6.60;;;12.10;92.50;;;;;;5011019;28;20509;-59
2023/01/17 13:01:56;;;;;;;11.88;5.88;;;11.20;93.30;;;;;;5012117;28;20092;-58
2023/01/17 13:04:56;;;;;;;13.13;6.68;;;10.60;94.80;;;;;;5011875;28;20038;-58
2023/01/17 13:07:54;;;;;;;24.15;12.35;;;10.90;94.50;;;;;;5011939;28;20034;-59
2023/01/17 13:10:34;;;;;;;16.95;7.10;;;9.50;96.00;;;;;;5006321;28;20045;-59
2023/01/17 13:13:40;;;;;;;11.45;5.95;;;9.70;95.40;;;;;;5012105;28;20038;-58
2023/01/17 13:16:15;;;;;;;13.73;5.70;;;9.50;96.60;;;;;;4951064;29;20074;-59
2023/01/17 13:18:50;;;;;;;14.27;5.18;;;8.30;97.70;;;;;;5003578;28;20034;-58
2023/01/17 13:21:25;;;;;;;11.13;5.10;;;7.90;99.80;;;;;;5011775;28;20497;-58
2023/01/17 13:23:50;;;;;;;12.45;5.15;;;7.60;99.80;;;;;;5011739;28;20033;-58
2023/01/17 13:26:38;;;;;;;14.33;4.93;;;7.20;99.90;;;;;;5011829;28;20091;-58
2023/01/17 13:29:23;;;;;;;12.60;4.93;;;6.70;99.90;;;;;;5012122;28;20061;-58
2023/01/17 13:32:09;;;;;;;14.43;5.23;;;6.30;99.90;;;;;;5011884;28;20054;-58
2023/01/17 13:34:44;;;;;;;12.10;4.53;;;6.00;99.90;;;;;;5011435;28;20097;-58
2023/01/17 13:37:28;;;;;;;14.20;4.20;;;6.00;99.90;;;;;;5011582;28;20048;-58
2023/01/17 13:40:23;;;;;;;10.93;4.53;;;5.90;99.90;;;;;;5011618;28;20025;-58
2023/01/17 13:43:00;;;;;;;11.10;4.57;;;5.70;99.90;;;;;;5011706;28;20390;-58
2023/01/17 13:45:34;;;;;;;14.00;4.33;;;5.40;99.90;;;;;;5010776;28;20041;-58
2023/01/17 13:48:15;;;;;;;13.93;5.37;;;5.30;99.90;;;;;;5011231;28;20029;-58
2023/01/17 13:50:47;;;;;;;11.57;4.87;;;5.10;99.90;;;;;;5011284;28;20492;-58
2023/01/17 13:53:30;;;;;;;15.37;5.30;;;5.00;99.90;;;;;;5011485;28;20252;-58
2023/01/17 13:56:24;;;;;;;13.10;5.50;;;4.90;99.90;;;;;;5011357;28;20029;-58
2023/01/17 13:58:53;;;;;;;15.83;5.70;;;4.70;99.90;;;;;;5011509;28;20395;-58
2023/01/17 14:01:22;;;;;;;10.00;5.00;;;4.80;99.90;;;;;;5011251;28;20466;-58
2023/01/17 14:03:53;;;;;;;15.95;5.07;;;4.80;99.90;;;;;;5011066;28;20121;-58
2023/01/17 14:06:34;;;;;;;15.17;6.00;;;4.70;99.90;;;;;;5011144;28;20446;-58
2023/01/17 14:09:37;;;;;;;17.10;6.60;;;4.90;99.90;;;;;;5011103;28;20026;-58
2023/01/17 14:12:05;;;;;;;14.97;5.93;;;5.10;99.90;;;;;;5001437;28;20422;-58
2023/01/17 14:14:35;;;;;;;17.23;6.87;;;5.20;99.90;;;;;;5010889;28;20041;-58
2023/01/17 14:17:25;;;;;;;17.80;5.90;;;5.20;99.90;;;;;;5010698;28;20483;-58
2023/01/17 14:20:18;;;;;;;22.23;6.70;;;5.20;99.90;;;;;;5010962;28;20104;-58
2023/01/17 14:22:49;;;;;;;18.57;6.17;;;5.20;99.90;;;;;;5010784;28;20042;-58
2023/01/17 14:25:20;;;;;;;19.53;6.00;;;5.20;99.90;;;;;;5010761;28;20045;-57
2023/01/17 14:27:55;;;;;;;22.53;6.60;;;5.20;99.90;;;;;;5011008;28;20484;-57
2023/01/17 14:30:32;;;;;;;26.80;7.87;;;5.20;99.90;;;;;;5010799;28;20387;-58
2023/01/17 14:33:01;;;;;;;23.33;7.47;;;5.10;99.90;;;;;;5010814;28;20103;-58